createdAt,value
2023-03-30T00:01:20.921Z,100287.63
2023-03-30T00:03:49.463Z,100271.06
2023-03-30T00:06:23.143Z,100283.59
2023-03-30T00:08:57.604Z,100277.94
2023-03-30T00:11:27.105Z,100298.94
2023-03-30T00:13:54.823Z,100289.25
2023-03-30T00:16:22.338Z,100280.78
2023-03-30T00:18:50.736Z,100275.13
2023-03-30T00:21:21.448Z,100271.47
2023-03-30T00:23:48.758Z,100272.69
2023-03-30T00:26:16.372Z,100255.31
2023-03-30T00:28:45.160Z,100247.66
2023-03-30T00:31:13.070Z,100248.06
2023-03-30T00:33:46.362Z,100232.75
2023-03-30T00:36:14.899Z,100224.69
2023-03-30T00:38:42.294Z,100244.44
2023-03-30T00:41:09.668Z,100242.41
2023-03-30T00:43:56.965Z,100256.53
2023-03-30T00:46:24.582Z,100255.31
2023-03-30T00:48:52.065Z,100227.47
2023-03-30T00:51:19.718Z,100244.41
2023-03-30T00:53:50.190Z,100242.78
2023-03-30T00:56:23.152Z,100236.75
2023-03-30T00:58:50.887Z,100238.75
2023-03-30T01:01:28.683Z,100230.69
2023-03-30T01:04:00.037Z,100220.22
2023-03-30T01:06:30.149Z,100217.38
2023-03-30T01:09:00.781Z,100207.31
2023-03-30T01:11:27.837Z,100212.13
2023-03-30T01:14:01.344Z,100208.09
2023-03-30T01:16:38.464Z,100212.53
2023-03-30T01:19:29.601Z,100212.56
2023-03-30T01:22:25.813Z,100204.06
2023-03-30T01:25:38.848Z,100209.31
2023-03-30T01:28:29.224Z,100212.16
2023-03-30T01:31:45.576Z,100219.81
2023-03-30T01:34:46.277Z,100221.03
2023-03-30T01:37:42.368Z,100217.00
2023-03-30T01:40:15.448Z,100214.94
2023-03-30T01:42:53.679Z,100212.13
2023-03-30T01:45:27.754Z,100209.31
2023-03-30T01:47:58.715Z,100210.53
2023-03-30T01:50:31.690Z,100208.50
2023-03-30T01:53:01.911Z,100210.50
2023-03-30T01:55:35.540Z,100222.25
2023-03-30T01:58:07.986Z,100216.56
2023-03-30T02:00:38.299Z,100215.38
2023-03-30T02:03:09.863Z,100205.69
2023-03-30T02:05:38.074Z,100218.22
2023-03-30T02:08:09.056Z,100211.34
2023-03-30T02:10:39.259Z,100210.94
2023-03-30T02:13:07.673Z,100215.38
2023-03-30T02:15:38.646Z,100220.22
2023-03-30T02:18:05.972Z,100217.78
2023-03-30T02:20:34.534Z,100222.63
2023-03-30T02:23:01.954Z,100223.44
2023-03-30T02:25:29.885Z,100226.66
2023-03-30T02:27:58.375Z,100219.41
2023-03-30T02:30:25.634Z,100223.03
2023-03-30T02:32:55.175Z,100232.31
2023-03-30T02:35:37.336Z,100210.50
2023-03-30T02:38:39.157Z,100210.53
2023-03-30T02:41:17.411Z,100212.97
2023-03-30T02:43:59.385Z,100200.44
2023-03-30T02:46:43.658Z,100206.50
2023-03-30T02:49:17.792Z,100197.22
2023-03-30T02:51:54.242Z,100210.09
2023-03-30T02:54:30.054Z,100209.72
2023-03-30T02:57:05.110Z,100203.25
2023-03-30T02:59:41.581Z,100202.06
2023-03-30T03:02:14.174Z,100197.63
2023-03-30T03:04:43.788Z,100200.84
2023-03-30T03:07:12.451Z,100208.53
2023-03-30T03:09:39.402Z,100203.69
2023-03-30T03:12:06.647Z,100212.94
2023-03-30T03:14:34.949Z,100205.69
2023-03-30T03:17:01.967Z,100206.50
2023-03-30T03:19:28.908Z,100210.13
2023-03-30T03:21:55.772Z,100215.78
2023-03-30T03:24:22.644Z,100219.41
2023-03-30T03:26:49.700Z,100220.19
2023-03-30T03:29:16.550Z,100229.06
2023-03-30T03:31:44.773Z,100219.63
2023-03-30T03:34:11.734Z,100225.22
2023-03-30T03:36:39.433Z,100215.19
2023-03-30T03:39:06.556Z,100226.38
2023-03-30T03:41:33.851Z,100225.53
2023-03-30T03:44:00.886Z,100229.47
2023-03-30T03:46:27.803Z,100225.78
2023-03-30T03:48:56.008Z,100219.63
2023-03-30T03:51:23.090Z,100219.25
2023-03-30T03:53:50.057Z,100221.19
2023-03-30T03:56:16.985Z,100220.38
2023-03-30T03:58:43.832Z,100211.59
2023-03-30T04:01:14.395Z,100212.41
2023-03-30T04:03:41.885Z,100202.25
2023-03-30T04:06:10.363Z,100204.28
2023-03-30T04:08:37.625Z,100196.63
2023-03-30T04:11:08.214Z,100216.16
2023-03-30T04:13:35.353Z,100215.63
2023-03-30T04:16:02.626Z,100220.53
2023-03-30T04:18:33.688Z,100223.22
2023-03-30T04:21:05.507Z,100218.50
2023-03-30T04:23:35.402Z,100213.09
2023-03-30T04:26:03.173Z,100223.91
2023-03-30T04:28:30.160Z,100227.59
2023-03-30T04:31:01.167Z,100227.13
2023-03-30T04:33:28.722Z,100234.31
2023-03-30T04:35:55.843Z,100239.47
2023-03-30T04:38:22.738Z,100232.81
2023-03-30T04:40:52.196Z,100235.16
2023-03-30T04:43:22.973Z,100242.97
2023-03-30T04:45:50.861Z,100244.59
2023-03-30T04:48:17.993Z,100242.28
2023-03-30T04:50:46.239Z,100238.44
2023-03-30T04:53:15.257Z,100251.75
2023-03-30T04:55:42.208Z,100234.78
2023-03-30T04:58:12.040Z,100235.75
2023-03-30T05:00:39.359Z,100232.00
2023-03-30T05:03:06.903Z,100237.22
2023-03-30T05:05:34.199Z,100242.28
2023-03-30T05:08:01.103Z,100241.34
2023-03-30T05:10:28.124Z,100241.13
2023-03-30T05:12:55.830Z,100245.41
2023-03-30T05:15:24.144Z,100249.59
2023-03-30T05:17:51.063Z,100235.53
2023-03-30T05:20:18.381Z,100245.91
2023-03-30T05:22:47.053Z,100252.31
2023-03-30T05:25:14.281Z,100255.81
2023-03-30T05:27:41.167Z,100250.72
2023-03-30T05:30:09.450Z,100252.81
2023-03-30T05:32:37.865Z,100253.69
2023-03-30T05:35:05.718Z,100262.38
2023-03-30T05:37:32.651Z,100261.66
2023-03-30T05:39:59.852Z,100263.28
2023-03-30T05:42:27.234Z,100268.59
2023-03-30T05:44:54.244Z,100274.56
2023-03-30T05:47:22.116Z,100274.97
2023-03-30T05:49:50.641Z,100283.31
2023-03-30T05:52:17.582Z,100285.13
2023-03-30T05:54:44.487Z,100291.59
2023-03-30T05:57:11.398Z,100290.94
2023-03-30T05:59:39.391Z,100285.97
2023-03-30T06:02:08.400Z,100290.31
2023-03-30T06:04:36.581Z,100286.75
2023-03-30T06:07:05.006Z,100289.75
2023-03-30T06:09:31.933Z,100298.53
2023-03-30T06:12:00.455Z,100291.56
2023-03-30T06:14:27.563Z,100293.28
2023-03-30T06:16:54.743Z,100298.16
2023-03-30T06:19:21.783Z,100304.41
2023-03-30T06:21:48.633Z,100308.47
2023-03-30T06:24:20.836Z,100310.50
2023-03-30T06:26:48.670Z,100310.78
2023-03-30T06:29:15.690Z,100310.78
2023-03-30T06:31:42.639Z,100322.53
2023-03-30T06:34:09.952Z,100320.44
2023-03-30T06:36:44.260Z,100320.03
2023-03-30T06:39:13.712Z,100317.59
2023-03-30T06:41:42.288Z,100318.94
2023-03-30T06:44:14.985Z,100314.50
2023-03-30T06:46:42.665Z,100337.66
2023-03-30T06:49:11.633Z,100338.19
2023-03-30T06:51:38.608Z,100331.72
2023-03-30T06:54:05.638Z,100329.47
2023-03-30T06:56:32.520Z,100327.91
2023-03-30T06:59:00.799Z,100333.75
2023-03-30T07:01:27.690Z,100334.78
2023-03-30T07:03:54.700Z,100349.34
2023-03-30T07:06:22.644Z,100344.84
2023-03-30T07:08:49.675Z,100352.47
2023-03-30T07:11:16.570Z,100344.53
2023-03-30T07:13:43.586Z,100345.09
2023-03-30T07:16:11.877Z,100352.44
2023-03-30T07:18:38.803Z,100363.56
2023-03-30T07:21:07.085Z,100357.31
2023-03-30T07:23:34.264Z,100361.94
2023-03-30T07:26:01.212Z,100364.34
2023-03-30T07:28:28.226Z,100355.84
2023-03-30T07:30:55.219Z,100364.75
2023-03-30T07:33:23.520Z,100364.19
2023-03-30T07:35:52.541Z,100379.28
2023-03-30T07:38:19.444Z,100374.03
2023-03-30T07:40:46.316Z,100370.00
2023-03-30T07:43:13.177Z,100395.28
2023-03-30T07:45:40.112Z,100396.19
2023-03-30T07:48:07.140Z,100401.03
2023-03-30T07:50:35.610Z,100409.16
2023-03-30T07:53:02.611Z,100405.13
2023-03-30T07:55:30.068Z,100405.09
2023-03-30T07:57:57.336Z,100407.94
2023-03-30T08:00:24.660Z,100422.81
2023-03-30T08:02:51.857Z,100419.25
2023-03-30T08:05:19.156Z,100424.09
2023-03-30T08:07:47.738Z,100426.13
2023-03-30T08:10:14.681Z,100419.28
2023-03-30T08:12:41.556Z,100422.47
2023-03-30T08:15:09.787Z,100428.41
2023-03-30T08:17:37.282Z,100436.44
2023-03-30T08:20:10.809Z,100430.66
2023-03-30T08:22:37.747Z,100436.44
2023-03-30T08:25:06.810Z,100419.72
2023-03-30T08:27:33.753Z,100425.63
2023-03-30T08:30:00.673Z,100437.06
2023-03-30T08:32:27.613Z,100425.31
2023-03-30T08:34:55.215Z,100438.25
2023-03-30T08:37:22.133Z,100448.19
2023-03-30T08:39:48.970Z,100444.91
2023-03-30T08:43:00.433Z,100444.56
2023-03-30T08:45:35.884Z,100429.25
2023-03-30T08:48:03.926Z,100433.78
2023-03-30T08:50:33.434Z,100444.06
2023-03-30T08:53:00.916Z,100440.63
2023-03-30T08:55:35.047Z,100432.56
2023-03-30T08:58:06.418Z,100439.06
2023-03-30T09:00:41.186Z,100443.91
2023-03-30T09:03:17.928Z,100448.34
2023-03-30T09:05:51.656Z,100447.53
2023-03-30T09:08:21.661Z,100456.44
2023-03-30T09:10:54.385Z,100463.31
2023-03-30T09:13:26.080Z,100458.47
2023-03-30T09:16:02.476Z,100467.38
2023-03-30T09:18:32.446Z,100470.97
2023-03-30T09:21:01.490Z,100475.69
2023-03-30T09:23:29.921Z,100470.38
2023-03-30T09:26:06.858Z,100486.66
2023-03-30T09:28:40.815Z,100473.53
2023-03-30T09:31:12.014Z,100480.28
2023-03-30T09:33:45.910Z,100475.88
2023-03-30T09:36:16.544Z,100491.59
2023-03-30T09:38:44.416Z,100479.06
2023-03-30T09:41:24.550Z,100484.34
2023-03-30T09:43:52.335Z,100482.69
2023-03-30T09:46:20.583Z,100483.53
2023-03-30T09:48:49.235Z,100491.19
2023-03-30T09:51:18.622Z,100487.16
2023-03-30T09:53:47.553Z,100481.88
2023-03-30T09:56:22.314Z,100489.53
2023-03-30T09:58:49.287Z,100495.25
2023-03-30T10:01:18.742Z,100497.66
2023-03-30T10:04:07.325Z,100495.66
2023-03-30T10:06:38.052Z,100493.22
2023-03-30T10:09:10.050Z,100494.81
2023-03-30T10:11:40.711Z,100497.63
2023-03-30T10:14:21.934Z,100504.13
2023-03-30T10:16:53.499Z,100497.25
2023-03-30T10:19:40.576Z,100504.94
2023-03-30T10:22:22.379Z,100512.59
2023-03-30T10:24:52.125Z,100511.38
2023-03-30T10:27:36.993Z,100505.34
2023-03-30T10:30:11.027Z,100512.59
2023-03-30T10:32:38.276Z,100506.94
2023-03-30T10:35:10.390Z,100506.16
2023-03-30T10:37:39.712Z,100502.13
2023-03-30T10:40:12.598Z,100506.44
2023-03-30T10:42:40.980Z,100509.94
2023-03-30T10:45:16.153Z,100519.41
2023-03-30T10:48:01.158Z,100528.00
2023-03-30T10:50:41.116Z,100530.41
2023-03-30T10:53:22.901Z,100519.50
2023-03-30T10:55:56.514Z,100517.88
2023-03-30T10:58:38.343Z,100523.91
2023-03-30T11:01:13.724Z,100516.25
2023-03-30T11:03:45.506Z,100519.91
2023-03-30T11:06:19.810Z,100525.16
2023-03-30T11:08:49.462Z,100520.66
2023-03-30T11:11:21.636Z,100532.78
2023-03-30T11:13:53.906Z,100513.00
2023-03-30T11:16:24.009Z,100521.50
2023-03-30T11:18:57.132Z,100517.84
2023-03-30T11:21:31.118Z,100515.47
2023-03-30T11:24:04.407Z,100533.28
2023-03-30T11:26:35.742Z,100514.50
2023-03-30T11:29:12.748Z,100521.56
2023-03-30T11:31:54.578Z,100504.34
2023-03-30T11:34:36.720Z,100512.84
2023-03-30T11:37:14.134Z,100509.47
2023-03-30T11:39:48.678Z,100512.72
2023-03-30T11:42:22.557Z,100500.97
2023-03-30T11:44:49.523Z,100506.81
2023-03-30T11:47:37.844Z,100481.63
2023-03-30T11:50:18.002Z,100500.13
2023-03-30T11:52:56.823Z,100510.22
2023-03-30T11:55:34.782Z,100522.59
2023-03-30T11:58:11.362Z,100517.22
2023-03-30T12:00:48.938Z,100539.69
2023-03-30T12:03:29.299Z,100532.16
2023-03-30T12:06:20.712Z,100526.50
2023-03-30T12:09:14.814Z,100518.94
2023-03-30T12:11:47.450Z,100526.22
2023-03-30T12:14:33.342Z,100515.75
2023-03-30T12:17:06.669Z,100529.16
2023-03-30T12:19:53.402Z,100526.63
2023-03-30T12:22:29.971Z,100528.59
2023-03-30T12:25:00.620Z,100529.44
2023-03-30T12:27:29.133Z,100531.47
2023-03-30T12:30:14.247Z,100527.88
2023-03-30T12:32:58.649Z,100524.28
2023-03-30T12:35:58.145Z,100538.25
2023-03-30T12:38:27.401Z,100526.91
2023-03-30T12:41:14.361Z,100541.16
2023-03-30T12:44:06.626Z,100524.75
2023-03-30T12:46:42.153Z,100549.03
2023-03-30T12:49:21.977Z,100532.03
2023-03-30T12:51:58.298Z,100528.78
2023-03-30T12:54:44.062Z,100537.63
2023-03-30T12:57:28.355Z,100521.88
2023-03-30T13:00:26.275Z,100518.19
2023-03-30T13:03:25.977Z,100510.94
2023-03-30T13:05:54.840Z,100506.88
2023-03-30T13:08:28.073Z,100512.59
2023-03-30T13:11:12.815Z,100499.22
2023-03-30T13:13:54.133Z,100502.09
2023-03-30T13:17:06.427Z,100512.63
2023-03-30T13:19:48.980Z,100518.69
2023-03-30T13:22:27.188Z,100506.53
2023-03-30T13:24:58.078Z,100510.19
2023-03-30T13:27:29.011Z,100508.16
2023-03-30T13:29:59.951Z,100500.41
2023-03-30T13:33:10.078Z,100485.00
2023-03-30T13:35:49.141Z,100516.44
2023-03-30T13:38:40.426Z,100505.94
2023-03-30T13:41:18.771Z,100504.88
2023-03-30T13:44:00.898Z,100487.00
2023-03-30T13:46:36.086Z,100504.00
2023-03-30T13:49:22.187Z,100514.81
2023-03-30T13:51:49.447Z,100516.19
2023-03-30T13:54:21.409Z,100502.38
2023-03-30T13:56:56.867Z,100511.53
2023-03-30T13:59:29.355Z,100504.44
2023-03-30T14:02:00.271Z,100504.38
2023-03-30T14:04:30.116Z,100500.09
2023-03-30T14:06:58.599Z,100502.09
2023-03-30T14:09:28.025Z,100499.19
2023-03-30T14:11:57.783Z,100502.44
2023-03-30T14:14:32.775Z,100506.66
2023-03-30T14:17:03.161Z,100508.16
2023-03-30T14:19:35.294Z,100493.81
2023-03-30T14:22:05.163Z,100497.25
2023-03-30T14:24:34.338Z,100501.19
2023-03-30T14:27:03.683Z,100497.63
2023-03-30T14:29:32.323Z,100492.69
2023-03-30T14:32:09.075Z,100502.28
2023-03-30T14:34:36.907Z,100491.72
2023-03-30T14:37:06.000Z,100501.38
2023-03-30T14:39:39.074Z,100507.81
2023-03-30T14:42:12.575Z,100504.41
2023-03-30T14:44:40.953Z,100502.81
2023-03-30T14:47:09.336Z,100502.28
2023-03-30T14:49:37.348Z,100501.94
2023-03-30T14:52:09.382Z,100503.69
2023-03-30T14:54:37.445Z,100501.59
2023-03-30T14:57:07.522Z,100491.38
2023-03-30T14:59:42.754Z,100487.44
2023-03-30T15:02:19.994Z,100490.72
2023-03-30T15:04:47.929Z,100485.94
2023-03-30T15:07:16.322Z,100479.03
2023-03-30T15:09:46.864Z,100483.88
2023-03-30T15:12:21.870Z,100476.94
2023-03-30T15:14:50.191Z,100479.34
2023-03-30T15:17:22.348Z,100487.53
2023-03-30T15:19:51.718Z,100475.38
2023-03-30T15:22:26.103Z,100464.78
2023-03-30T15:24:54.767Z,100464.47
2023-03-30T15:27:23.509Z,100457.66
2023-03-30T15:29:50.849Z,100449.53
2023-03-30T15:32:22.142Z,100441.03
2023-03-30T15:35:01.982Z,100454.75
2023-03-30T15:37:30.331Z,100446.28
2023-03-30T15:39:57.361Z,100446.69
2023-03-30T15:42:26.135Z,100433.41
2023-03-30T15:45:02.414Z,100435.81
2023-03-30T15:47:33.779Z,100436.22
2023-03-30T15:50:00.827Z,100421.25
2023-03-30T15:52:34.365Z,100432.19
2023-03-30T15:55:21.461Z,100419.63
2023-03-30T15:57:51.442Z,100427.31
2023-03-30T16:00:21.126Z,100418.44
2023-03-30T16:02:57.729Z,100428.91
2023-03-30T16:05:27.597Z,100422.88
2023-03-30T16:07:55.100Z,100436.25
2023-03-30T16:10:24.768Z,100434.16
2023-03-30T16:12:53.123Z,100428.44
2023-03-30T16:15:22.535Z,100423.59
2023-03-30T16:17:51.285Z,100424.03
2023-03-30T16:20:20.677Z,100424.09
2023-03-30T16:22:47.555Z,100424.44
2023-03-30T16:25:14.984Z,100428.53
2023-03-30T16:27:42.178Z,100427.75
2023-03-30T16:30:17.764Z,100432.19
2023-03-30T16:32:45.075Z,100426.94
2023-03-30T16:35:13.612Z,100417.66
2023-03-30T16:37:40.887Z,100432.59
2023-03-30T16:40:19.237Z,100424.94
2023-03-30T16:42:46.128Z,100418.44
2023-03-30T16:45:13.249Z,100416.44
2023-03-30T16:47:40.361Z,100430.56
2023-03-30T16:50:18.902Z,100433.41
2023-03-30T16:52:45.790Z,100434.25
2023-03-30T16:55:12.745Z,100430.16
2023-03-30T16:57:39.613Z,100434.16
2023-03-30T17:00:16.163Z,100432.97
2023-03-30T17:02:43.086Z,100427.78
2023-03-30T17:05:10.102Z,100427.34
2023-03-30T17:07:38.567Z,100429.38
2023-03-30T17:10:19.976Z,100424.09
2023-03-30T17:12:47.342Z,100405.97
2023-03-30T17:15:14.179Z,100413.63
2023-03-30T17:17:41.883Z,100411.19
2023-03-30T17:20:26.592Z,100410.38
2023-03-30T17:22:55.393Z,100406.75
2023-03-30T17:25:26.412Z,100406.34
2023-03-30T17:27:54.066Z,100415.63
2023-03-30T17:30:24.758Z,100414.81
2023-03-30T17:32:51.739Z,100409.16
2023-03-30T17:35:18.740Z,100406.75
2023-03-30T17:37:45.996Z,100405.09
2023-03-30T17:40:22.755Z,100405.53
2023-03-30T17:42:50.085Z,100410.69
2023-03-30T17:45:19.670Z,100415.59
2023-03-30T17:47:47.267Z,100418.84
2023-03-30T17:50:21.395Z,100414.41
2023-03-30T17:52:48.608Z,100409.56
2023-03-30T17:55:16.101Z,100407.13
2023-03-30T17:57:44.965Z,100412.38
2023-03-30T18:00:22.052Z,100403.09
2023-03-30T18:02:49.494Z,100398.66
2023-03-30T18:05:17.793Z,100403.50
2023-03-30T18:07:45.782Z,100398.63
2023-03-30T18:10:22.131Z,100397.75
2023-03-30T18:12:51.550Z,100393.28
2023-03-30T18:15:20.689Z,100395.19
2023-03-30T18:17:48.148Z,100390.72
2023-03-30T18:20:21.731Z,100384.50
2023-03-30T18:22:49.702Z,100378.03
2023-03-30T18:25:25.870Z,100384.16
2023-03-30T18:28:01.316Z,100385.28
2023-03-30T18:30:30.661Z,100379.59
2023-03-30T18:32:58.213Z,100386.91
2023-03-30T18:35:27.722Z,100381.94
2023-03-30T18:37:55.802Z,100387.44
2023-03-30T18:40:28.546Z,100387.56
2023-03-30T18:42:57.467Z,100381.91
2023-03-30T18:45:27.935Z,100392.66
2023-03-30T18:47:57.731Z,100386.66
2023-03-30T18:50:30.301Z,100397.13
2023-03-30T18:52:57.938Z,100397.06
2023-03-30T18:55:25.746Z,100403.47
2023-03-30T18:57:55.184Z,100394.50
2023-03-30T19:00:25.550Z,100397.81
2023-03-30T19:02:56.616Z,100399.47
2023-03-30T19:05:25.760Z,100396.88
2023-03-30T19:07:53.379Z,100406.47
2023-03-30T19:10:22.630Z,100404.91
2023-03-30T19:12:53.436Z,100404.94
2023-03-30T19:15:23.077Z,100404.09
2023-03-30T19:17:50.397Z,100398.41
2023-03-30T19:20:21.596Z,100402.78
2023-03-30T19:22:49.500Z,100392.34
2023-03-30T19:25:18.643Z,100397.50
2023-03-30T19:28:02.049Z,100394.22
2023-03-30T19:30:32.807Z,100390.19
2023-03-30T19:33:02.197Z,100394.66
2023-03-30T19:35:33.089Z,100388.84
2023-03-30T19:38:00.843Z,100396.81
2023-03-30T19:40:28.021Z,100399.25
2023-03-30T19:42:55.061Z,100381.22
2023-03-30T19:45:26.600Z,100381.56
2023-03-30T19:47:53.780Z,100367.81
2023-03-30T19:50:24.411Z,100366.84
2023-03-30T19:52:54.451Z,100375.66
2023-03-30T19:55:25.986Z,100359.25
2023-03-30T19:57:53.031Z,100352.44
2023-03-30T20:00:21.347Z,100356.34
2023-03-30T20:02:52.627Z,100349.59
2023-03-30T20:05:21.314Z,100349.59
2023-03-30T20:07:48.983Z,100359.56
2023-03-30T20:10:20.379Z,100351.50
2023-03-30T20:12:48.230Z,100352.38
2023-03-30T20:15:16.384Z,100338.69
2023-03-30T20:17:43.547Z,100326.25
2023-03-30T20:20:12.894Z,100329.16
2023-03-30T20:22:42.079Z,100329.13
2023-03-30T20:25:11.415Z,100319.25
2023-03-30T20:27:40.340Z,100315.72
2023-03-30T20:30:08.741Z,100315.97
2023-03-30T20:32:35.866Z,100313.22
2023-03-30T20:35:04.017Z,100306.31
2023-03-30T20:37:31.254Z,100311.28
2023-03-30T20:40:04.874Z,100321.03
2023-03-30T20:42:32.933Z,100324.59
2023-03-30T20:45:01.566Z,100315.38
2023-03-30T20:47:30.975Z,100298.44
2023-03-30T20:49:58.696Z,100297.66
2023-03-30T20:52:26.039Z,100278.28
2023-03-30T20:54:53.324Z,100278.38
2023-03-30T20:57:21.370Z,100274.25
2023-03-30T20:59:48.566Z,100274.25
2023-03-30T21:02:17.490Z,100263.19
2023-03-30T21:04:44.998Z,100262.34
2023-03-30T21:07:12.592Z,100254.38
2023-03-30T21:09:40.243Z,100254.34
2023-03-30T21:12:08.669Z,100252.56
2023-03-30T21:14:35.990Z,100259.41
2023-03-30T21:17:03.090Z,100263.69
2023-03-30T21:19:31.668Z,100243.59
2023-03-30T21:22:00.390Z,100226.09
2023-03-30T21:24:27.512Z,100222.59
2023-03-30T21:26:54.433Z,100215.59
2023-03-30T21:29:22.093Z,100216.34
2023-03-30T21:31:52.166Z,100207.44
2023-03-30T21:34:20.212Z,100198.34
2023-03-30T21:36:48.649Z,100186.84
2023-03-30T21:39:15.659Z,100173.94
2023-03-30T21:41:43.055Z,100176.47
2023-03-30T21:44:09.943Z,100176.38
2023-03-30T21:46:38.505Z,100167.59
2023-03-30T21:49:05.566Z,100168.44
2023-03-30T21:51:32.558Z,100167.03
2023-03-30T21:54:01.359Z,100160.09
2023-03-30T21:56:30.314Z,100154.22
2023-03-30T21:58:57.573Z,100142.97
2023-03-30T22:01:25.449Z,100140.13
2023-03-30T22:03:53.063Z,100126.31
2023-03-30T22:06:20.574Z,100119.91
2023-03-30T22:08:48.030Z,100121.13
2023-03-30T22:11:18.657Z,100118.19
2023-03-30T22:13:48.333Z,100099.06
2023-03-30T22:16:18.844Z,100097.38
2023-03-30T22:18:46.867Z,100095.00
2023-03-30T22:21:17.415Z,100085.75
2023-03-30T22:23:44.669Z,100079.56
2023-03-30T22:26:13.256Z,100075.22
2023-03-30T22:28:42.132Z,100065.53
2023-03-30T22:31:10.360Z,100061.97
2023-03-30T22:33:37.544Z,100069.22
2023-03-30T22:36:05.240Z,100061.56
2023-03-30T22:38:32.509Z,100051.44
2023-03-30T22:41:07.099Z,100056.09
2023-03-30T22:43:34.717Z,100053.72
2023-03-30T22:46:03.657Z,100051.22
2023-03-30T22:48:30.721Z,100040.78
2023-03-30T22:50:58.715Z,100036.00
2023-03-30T22:53:25.699Z,100025.44
2023-03-30T22:55:52.657Z,100031.56
2023-03-30T22:58:19.530Z,100032.75
2023-03-30T23:00:46.396Z,100018.28
2023-03-30T23:03:14.731Z,100016.69
2023-03-30T23:05:42.485Z,100014.97
2023-03-30T23:08:09.611Z,100006.25
2023-03-30T23:10:37.648Z,99995.63
2023-03-30T23:13:04.915Z,99995.63
2023-03-30T23:15:32.353Z,99994.88
2023-03-30T23:17:59.706Z,99992.03
2023-03-30T23:20:28.094Z,99982.03
2023-03-30T23:22:54.928Z,99984.34
2023-03-30T23:25:22.206Z,99983.19
2023-03-30T23:27:49.099Z,99977.84
2023-03-30T23:30:16.284Z,99981.19
2023-03-30T23:32:43.198Z,99977.22
2023-03-30T23:35:10.111Z,99968.41
2023-03-30T23:37:38.433Z,99970.66
2023-03-30T23:40:09.004Z,99957.44
2023-03-30T23:42:36.078Z,99955.75
2023-03-30T23:45:03.138Z,99956.72
2023-03-30T23:47:30.096Z,99953.03
2023-03-30T23:49:57.044Z,99945.75
2023-03-30T23:52:23.890Z,99942.13
2023-03-30T23:54:52.580Z,99946.63
2023-03-30T23:57:19.987Z,99936.94
2023-03-30T23:59:47.407Z,99949.72
